Malaga, WA (98828)

12:55 AM PDT on July 31, 2016 (GMT -0700)
Malaga Heights | | Change Station

Elev 1512 ft 47.35 °N, 120.20 °W | Updated 31 seconds ago

Clear
Clear
69.1 °F
Feels Like 69.1 °F
N
5.8
Wind Variable Wind from SSW
Gusts 9.8 mph

Today
High -- | Low -- °F
--% Chance of Precip.
Yesterday
High -- | Low -- °F
Precip. -- in
Pressure 29.72 in
Visibility 10.0 miles
Clouds Clear
Dew Point 39 °F
Humidity 33%
Rainfall 0.00 in
Snow Depth Not available.
5:38 AM 8:34 PM
Waning Crescent, 8% visible
METAR KEAT 310655Z AUTO 29014KT 10SM CLR 21/06 A2975 RMK AO2 PK WND 29026/0607 SLP064 T02110056
Pressure 29.72 in
Visibility 10.0 miles
Clouds Clear
Dew Point 39 °F
Humidity 33%
Rainfall 0.00 in
Snow Depth Not available.
5:38 AM 8:34 PM
Waning Crescent, 8% visible
METAR KEAT 310655Z AUTO 29014KT 10SM CLR 21/06 A2975 RMK AO2 PK WND 29026/0607 SLP064 T02110056

10-Day Weather Forecast

Almanac

Astronomy

Jul. 31, 2016 Rise Set
Actual Time
Civil Twilight
Nautical Twilight
Astronomical Twilight
Moon
Length of Visible Light
Length of Day
Tomorrow will be .
, % of the Moon is Illuminated

Today's Extremes

State Highs State Lows

Community

WunderPhotos

Upload Photos

1,928,768 photos uploaded!

WunderBlog® & News

Nearby

Air Quality

  Air Quality AQ Index Pollutant
Not available.

Snow Depth

Station Depth Elevation

Earthquake Activity

City Distance Mag. Time & Date
Minimum magnitude displayed is 2.5.

Coastal Water Temperatures

Place Temperature

Stations

Nearby Weather Stations

Station Location Temp. Windchill Dew Point Humidity Wind Precip. Elev Updated Type
                   

Watches & Warnings

There are currently no watches in effect.